sensor_id;sensor_type;location;lat;lon;timestamp;P1;durP1;ratioP1;P2;durP2;ratioP2
4555;SDS011;2290;48.674;9.018;2023-02-05T00:34:56;5.20;;;3.50;;
4555;SDS011;2290;48.674;9.018;2023-02-05T00:38:48;9.47;;;3.80;;
4555;SDS011;2290;48.674;9.018;2023-02-05T00:45:39;13.53;;;4.73;;
4555;SDS011;2290;48.674;9.018;2023-02-05T00:52:04;7.10;;;3.67;;
4555;SDS011;2290;48.674;9.018;2023-02-05T00:56:04;6.63;;;3.77;;
4555;SDS011;2290;48.674;9.018;2023-02-05T01:02:19;5.57;;;4.00;;
4555;SDS011;2290;48.674;9.018;2023-02-05T01:09:32;7.87;;;4.27;;
4555;SDS011;2290;48.674;9.018;2023-02-05T01:12:49;8.63;;;3.60;;
4555;SDS011;2290;48.674;9.018;2023-02-05T01:16:19;6.40;;;3.47;;
4555;SDS011;2290;48.674;9.018;2023-02-05T01:20:11;11.17;;;4.13;;
4555;SDS011;2290;48.674;9.018;2023-02-05T01:26:43;9.30;;;3.60;;
4555;SDS011;2290;48.674;9.018;2023-02-05T01:33:51;8.70;;;4.53;;
4555;SDS011;2290;48.674;9.018;2023-02-05T01:50:53;6.07;;;3.30;;
4555;SDS011;2290;48.674;9.018;2023-02-05T01:57:29;7.13;;;3.80;;
4555;SDS011;2290;48.674;9.018;2023-02-05T02:00:42;6.70;;;3.40;;
4555;SDS011;2290;48.674;9.018;2023-02-05T02:04:17;4.73;;;3.67;;
4555;SDS011;2290;48.674;9.018;2023-02-05T02:07:51;9.20;;;4.47;;
4555;SDS011;2290;48.674;9.018;2023-02-05T02:15:08;7.63;;;3.80;;
4555;SDS011;2290;48.674;9.018;2023-02-05T02:53:35;8.40;;;3.47;;
4555;SDS011;2290;48.674;9.018;2023-02-05T02:57:10;5.53;;;3.10;;
4555;SDS011;2290;48.674;9.018;2023-02-05T03:07:37;8.97;;;3.23;;
4555;SDS011;2290;48.674;9.018;2023-02-05T03:14:14;5.57;;;3.17;;
4555;SDS011;2290;48.674;9.018;2023-02-05T03:28:27;4.90;;;2.60;;
4555;SDS011;2290;48.674;9.018;2023-02-05T04:06:29;4.80;;;2.77;;
4555;SDS011;2290;48.674;9.018;2023-02-05T04:09:56;3.47;;;2.70;;
4555;SDS011;2290;48.674;9.018;2023-02-05T04:34:21;6.57;;;2.50;;
4555;SDS011;2290;48.674;9.018;2023-02-05T04:45:12;3.73;;;2.90;;
4555;SDS011;2290;48.674;9.018;2023-02-05T04:52:03;5.67;;;3.00;;
4555;SDS011;2290;48.674;9.018;2023-02-05T05:02:02;9.07;;;3.30;;
4555;SDS011;2290;48.674;9.018;2023-02-05T05:05:48;6.80;;;3.03;;
4555;SDS011;2290;48.674;9.018;2023-02-05T05:09:19;7.27;;;2.83;;
4555;SDS011;2290;48.674;9.018;2023-02-05T05:12:11;7.83;;;3.27;;
4555;SDS011;2290;48.674;9.018;2023-02-05T05:14:36;5.40;;;3.00;;
4555;SDS011;2290;48.674;9.018;2023-02-05T05:17:02;5.60;;;3.17;;
4555;SDS011;2290;48.674;9.018;2023-02-05T05:19:28;6.10;;;2.90;;
4555;SDS011;2290;48.674;9.018;2023-02-05T05:21:54;8.03;;;3.00;;
4555;SDS011;2290;48.674;9.018;2023-02-05T05:24:19;7.03;;;3.77;;
4555;SDS011;2290;48.674;9.018;2023-02-05T05:26:46;8.20;;;3.60;;
4555;SDS011;2290;48.674;9.018;2023-02-05T05:29:12;6.27;;;3.77;;
4555;SDS011;2290;48.674;9.018;2023-02-05T05:31:38;7.17;;;3.80;;
4555;SDS011;2290;48.674;9.018;2023-02-05T05:34:03;10.20;;;4.00;;
4555;SDS011;2290;48.674;9.018;2023-02-05T05:36:29;10.10;;;3.67;;
4555;SDS011;2290;48.674;9.018;2023-02-05T05:38:55;5.80;;;3.70;;
4555;SDS011;2290;48.674;9.018;2023-02-05T05:41:40;9.23;;;4.27;;
4555;SDS011;2290;48.674;9.018;2023-02-05T05:44:27;8.50;;;3.73;;
4555;SDS011;2290;48.674;9.018;2023-02-05T05:46:53;8.00;;;3.90;;
4555;SDS011;2290;48.674;9.018;2023-02-05T05:49:18;8.87;;;4.00;;
4555;SDS011;2290;48.674;9.018;2023-02-05T05:51:45;5.90;;;3.80;;
4555;SDS011;2290;48.674;9.018;2023-02-05T05:54:12;6.53;;;3.60;;
4555;SDS011;2290;48.674;9.018;2023-02-05T05:56:38;9.50;;;4.43;;
4555;SDS011;2290;48.674;9.018;2023-02-05T05:59:04;8.07;;;4.10;;
4555;SDS011;2290;48.674;9.018;2023-02-05T06:01:30;7.50;;;4.50;;
4555;SDS011;2290;48.674;9.018;2023-02-05T06:03:55;8.47;;;4.43;;
4555;SDS011;2290;48.674;9.018;2023-02-05T06:06:24;6.33;;;4.03;;
4555;SDS011;2290;48.674;9.018;2023-02-05T06:08:57;10.53;;;4.27;;
4555;SDS011;2290;48.674;9.018;2023-02-05T06:11:24;6.00;;;3.50;;
4555;SDS011;2290;48.674;9.018;2023-02-05T06:13:51;6.90;;;3.33;;
4555;SDS011;2290;48.674;9.018;2023-02-05T06:16:18;7.20;;;3.93;;
4555;SDS011;2290;48.674;9.018;2023-02-05T06:18:56;6.33;;;3.57;;
4555;SDS011;2290;48.674;9.018;2023-02-05T06:21:34;4.97;;;3.20;;
4555;SDS011;2290;48.674;9.018;2023-02-05T06:24:03;11.03;;;3.90;;
4555;SDS011;2290;48.674;9.018;2023-02-05T06:26:31;8.53;;;4.20;;
4555;SDS011;2290;48.674;9.018;2023-02-05T06:28:59;7.73;;;3.80;;
4555;SDS011;2290;48.674;9.018;2023-02-05T06:31:29;7.63;;;3.60;;
4555;SDS011;2290;48.674;9.018;2023-02-05T06:36:54;11.70;;;3.80;;
4555;SDS011;2290;48.674;9.018;2023-02-05T06:39:45;7.57;;;4.17;;
4555;SDS011;2290;48.674;9.018;2023-02-05T06:42:16;8.10;;;4.07;;
4555;SDS011;2290;48.674;9.018;2023-02-05T06:45:02;6.57;;;3.43;;
4555;SDS011;2290;48.674;9.018;2023-02-05T06:48:15;7.03;;;3.60;;
4555;SDS011;2290;48.674;9.018;2023-02-05T06:50:47;8.03;;;4.37;;
4555;SDS011;2290;48.674;9.018;2023-02-05T06:53:35;7.07;;;4.17;;
4555;SDS011;2290;48.674;9.018;2023-02-05T06:56:15;10.00;;;3.97;;
4555;SDS011;2290;48.674;9.018;2023-02-05T06:58:49;5.37;;;3.40;;
4555;SDS011;2290;48.674;9.018;2023-02-05T07:01:19;6.03;;;3.80;;
4555;SDS011;2290;48.674;9.018;2023-02-05T07:03:46;8.77;;;3.50;;
4555;SDS011;2290;48.674;9.018;2023-02-05T07:06:12;7.30;;;3.73;;
4555;SDS011;2290;48.674;9.018;2023-02-05T07:08:38;5.60;;;3.63;;
4555;SDS011;2290;48.674;9.018;2023-02-05T07:11:03;7.53;;;3.80;;
4555;SDS011;2290;48.674;9.018;2023-02-05T07:13:29;10.77;;;3.80;;
4555;SDS011;2290;48.674;9.018;2023-02-05T07:15:55;7.70;;;3.77;;
4555;SDS011;2290;48.674;9.018;2023-02-05T07:18:20;5.13;;;3.50;;
4555;SDS011;2290;48.674;9.018;2023-02-05T07:20:51;6.80;;;4.07;;
4555;SDS011;2290;48.674;9.018;2023-02-05T07:23:20;5.53;;;3.43;;
4555;SDS011;2290;48.674;9.018;2023-02-05T07:25:46;12.63;;;4.00;;
4555;SDS011;2290;48.674;9.018;2023-02-05T07:28:12;11.67;;;4.63;;
4555;SDS011;2290;48.674;9.018;2023-02-05T07:30:52;6.87;;;4.00;;
4555;SDS011;2290;48.674;9.018;2023-02-05T07:33:21;10.17;;;4.90;;
4555;SDS011;2290;48.674;9.018;2023-02-05T07:35:47;5.17;;;3.40;;
4555;SDS011;2290;48.674;9.018;2023-02-05T07:38:14;5.47;;;4.03;;
4555;SDS011;2290;48.674;9.018;2023-02-05T07:40:42;5.77;;;4.00;;
4555;SDS011;2290;48.674;9.018;2023-02-05T07:43:28;6.17;;;4.40;;
4555;SDS011;2290;48.674;9.018;2023-02-05T07:46:21;4.97;;;3.50;;
4555;SDS011;2290;48.674;9.018;2023-02-05T07:48:47;6.13;;;3.97;;
4555;SDS011;2290;48.674;9.018;2023-02-05T07:51:17;8.70;;;4.83;;
4555;SDS011;2290;48.674;9.018;2023-02-05T07:54:14;5.97;;;3.47;;
4555;SDS011;2290;48.674;9.018;2023-02-05T07:56:42;9.27;;;4.03;;
4555;SDS011;2290;48.674;9.018;2023-02-05T07:59:07;7.93;;;3.93;;
4555;SDS011;2290;48.674;9.018;2023-02-05T08:01:35;8.70;;;3.90;;
4555;SDS011;2290;48.674;9.018;2023-02-05T08:04:00;4.63;;;3.37;;
4555;SDS011;2290;48.674;9.018;2023-02-05T08:06:28;14.63;;;4.33;;
4555;SDS011;2290;48.674;9.018;2023-02-05T08:08:59;9.57;;;3.67;;
4555;SDS011;2290;48.674;9.018;2023-02-05T08:14:35;5.73;;;3.97;;
4555;SDS011;2290;48.674;9.018;2023-02-05T08:17:13;5.50;;;4.00;;
4555;SDS011;2290;48.674;9.018;2023-02-05T08:19:38;6.33;;;3.63;;
4555;SDS011;2290;48.674;9.018;2023-02-05T08:22:07;16.37;;;4.40;;
4555;SDS011;2290;48.674;9.018;2023-02-05T08:24:32;10.50;;;3.83;;
4555;SDS011;2290;48.674;9.018;2023-02-05T08:27:01;6.17;;;3.77;;
4555;SDS011;2290;48.674;9.018;2023-02-05T08:29:30;7.73;;;3.33;;
4555;SDS011;2290;48.674;9.018;2023-02-05T08:32:01;6.40;;;4.07;;
4555;SDS011;2290;48.674;9.018;2023-02-05T08:34:28;6.37;;;4.00;;
4555;SDS011;2290;48.674;9.018;2023-02-05T08:36:53;14.40;;;3.70;;
4555;SDS011;2290;48.674;9.018;2023-02-05T08:39:21;4.03;;;3.13;;
4555;SDS011;2290;48.674;9.018;2023-02-05T08:41:49;7.13;;;3.90;;
4555;SDS011;2290;48.674;9.018;2023-02-05T08:44:18;6.77;;;3.17;;
4555;SDS011;2290;48.674;9.018;2023-02-05T08:46:44;6.70;;;4.60;;
4555;SDS011;2290;48.674;9.018;2023-02-05T08:49:15;4.90;;;4.00;;
4555;SDS011;2290;48.674;9.018;2023-02-05T08:51:44;9.83;;;3.50;;
4555;SDS011;2290;48.674;9.018;2023-02-05T08:54:16;9.70;;;3.77;;
4555;SDS011;2290;48.674;9.018;2023-02-05T08:56:52;6.53;;;4.13;;
4555;SDS011;2290;48.674;9.018;2023-02-05T08:59:27;8.17;;;3.53;;
4555;SDS011;2290;48.674;9.018;2023-02-05T09:01:54;8.77;;;3.63;;
4555;SDS011;2290;48.674;9.018;2023-02-05T09:04:25;4.87;;;3.20;;
4555;SDS011;2290;48.674;9.018;2023-02-05T09:06:52;5.80;;;3.30;;
4555;SDS011;2290;48.674;9.018;2023-02-05T09:09:24;5.00;;;3.10;;
4555;SDS011;2290;48.674;9.018;2023-02-05T09:12:05;3.03;;;2.47;;
4555;SDS011;2290;48.674;9.018;2023-02-05T09:14:53;5.30;;;2.83;;
4555;SDS011;2290;48.674;9.018;2023-02-05T09:17:28;5.67;;;2.57;;
4555;SDS011;2290;48.674;9.018;2023-02-05T09:19:54;10.77;;;3.10;;
4555;SDS011;2290;48.674;9.018;2023-02-05T09:22:20;4.23;;;2.93;;
4555;SDS011;2290;48.674;9.018;2023-02-05T09:24:47;8.20;;;3.50;;
4555;SDS011;2290;48.674;9.018;2023-02-05T09:27:13;6.53;;;3.20;;
4555;SDS011;2290;48.674;9.018;2023-02-05T09:29:39;6.93;;;3.53;;
4555;SDS011;2290;48.674;9.018;2023-02-05T09:32:06;7.70;;;3.00;;
4555;SDS011;2290;48.674;9.018;2023-02-05T09:34:32;6.30;;;3.80;;
4555;SDS011;2290;48.674;9.018;2023-02-05T09:36:57;10.00;;;3.30;;
4555;SDS011;2290;48.674;9.018;2023-02-05T09:39:23;4.70;;;2.53;;
4555;SDS011;2290;48.674;9.018;2023-02-05T09:42:08;5.03;;;3.10;;
4555;SDS011;2290;48.674;9.018;2023-02-05T09:45:31;4.30;;;3.20;;
4555;SDS011;2290;48.674;9.018;2023-02-05T09:50:47;5.63;;;3.27;;
4555;SDS011;2290;48.674;9.018;2023-02-05T09:53:14;6.07;;;3.10;;
4555;SDS011;2290;48.674;9.018;2023-02-05T09:55:43;6.17;;;2.87;;
4555;SDS011;2290;48.674;9.018;2023-02-05T09:58:16;10.30;;;2.87;;
4555;SDS011;2290;48.674;9.018;2023-02-05T10:03:44;3.90;;;2.97;;
4555;SDS011;2290;48.674;9.018;2023-02-05T10:09:24;8.30;;;3.03;;
4555;SDS011;2290;48.674;9.018;2023-02-05T10:27:23;3.80;;;2.70;;
4555;SDS011;2290;48.674;9.018;2023-02-05T10:30:35;5.53;;;2.90;;
4555;SDS011;2290;48.674;9.018;2023-02-05T10:32:58;7.07;;;2.73;;
4555;SDS011;2290;48.674;9.018;2023-02-05T10:35:39;5.17;;;2.70;;
4555;SDS011;2290;48.674;9.018;2023-02-05T10:38:41;7.13;;;2.87;;
4555;SDS011;2290;48.674;9.018;2023-02-05T10:41:30;9.17;;;3.13;;
4555;SDS011;2290;48.674;9.018;2023-02-05T10:45:15;3.87;;;2.70;;
4555;SDS011;2290;48.674;9.018;2023-02-05T10:47:55;9.63;;;3.27;;
4555;SDS011;2290;48.674;9.018;2023-02-05T10:50:44;5.23;;;3.10;;
4555;SDS011;2290;48.674;9.018;2023-02-05T10:53:25;3.73;;;2.43;;
4555;SDS011;2290;48.674;9.018;2023-02-05T10:55:53;10.17;;;3.17;;
4555;SDS011;2290;48.674;9.018;2023-02-05T11:01:32;4.70;;;2.63;;
4555;SDS011;2290;48.674;9.018;2023-02-05T11:06:41;5.37;;;3.57;;
4555;SDS011;2290;48.674;9.018;2023-02-05T11:09:30;6.60;;;2.40;;
4555;SDS011;2290;48.674;9.018;2023-02-05T11:12:01;5.03;;;2.70;;
4555;SDS011;2290;48.674;9.018;2023-02-05T11:14:54;6.33;;;2.57;;
4555;SDS011;2290;48.674;9.018;2023-02-05T11:17:32;7.50;;;3.00;;
4555;SDS011;2290;48.674;9.018;2023-02-05T11:20:05;8.53;;;2.60;;
4555;SDS011;2290;48.674;9.018;2023-02-05T11:22:46;5.63;;;3.23;;
4555;SDS011;2290;48.674;9.018;2023-02-05T11:25:22;3.70;;;2.60;;
4555;SDS011;2290;48.674;9.018;2023-02-05T11:28:00;3.20;;;2.20;;
4555;SDS011;2290;48.674;9.018;2023-02-05T11:33:32;6.40;;;2.40;;
4555;SDS011;2290;48.674;9.018;2023-02-05T11:36:03;9.40;;;3.20;;
4555;SDS011;2290;48.674;9.018;2023-02-05T11:38:50;5.10;;;2.73;;
4555;SDS011;2290;48.674;9.018;2023-02-05T11:41:31;6.30;;;3.20;;
4555;SDS011;2290;48.674;9.018;2023-02-05T11:44:27;3.87;;;2.50;;
4555;SDS011;2290;48.674;9.018;2023-02-05T11:47:01;4.80;;;2.60;;
4555;SDS011;2290;48.674;9.018;2023-02-05T11:49:39;6.87;;;2.60;;
4555;SDS011;2290;48.674;9.018;2023-02-05T11:52:07;6.30;;;2.67;;
4555;SDS011;2290;48.674;9.018;2023-02-05T11:57:35;5.83;;;2.60;;
4555;SDS011;2290;48.674;9.018;2023-02-05T12:02:47;5.60;;;2.90;;
4555;SDS011;2290;48.674;9.018;2023-02-05T12:05:42;3.60;;;2.30;;
4555;SDS011;2290;48.674;9.018;2023-02-05T12:08:42;7.37;;;2.50;;
4555;SDS011;2290;48.674;9.018;2023-02-05T12:20:31;5.83;;;2.50;;
4555;SDS011;2290;48.674;9.018;2023-02-05T12:26:30;3.50;;;2.00;;
4555;SDS011;2290;48.674;9.018;2023-02-05T12:31:54;8.03;;;2.87;;
4555;SDS011;2290;48.674;9.018;2023-02-05T12:41:14;5.33;;;2.20;;
4555;SDS011;2290;48.674;9.018;2023-02-05T12:44:06;4.80;;;2.40;;
4555;SDS011;2290;48.674;9.018;2023-02-05T12:46:52;6.33;;;2.27;;
4555;SDS011;2290;48.674;9.018;2023-02-05T13:03:36;3.07;;;2.13;;
4555;SDS011;2290;48.674;9.018;2023-02-05T13:05:31;3.27;;;2.10;;
4555;SDS011;2290;48.674;9.018;2023-02-05T13:14:41;14.80;;;2.90;;
4555;SDS011;2290;48.674;9.018;2023-02-05T13:17:45;3.83;;;2.40;;
4555;SDS011;2290;48.674;9.018;2023-02-05T13:21:17;5.40;;;2.80;;
4555;SDS011;2290;48.674;9.018;2023-02-05T13:25:00;3.33;;;2.30;;
4555;SDS011;2290;48.674;9.018;2023-02-05T13:31:48;3.90;;;2.60;;
4555;SDS011;2290;48.674;9.018;2023-02-05T13:35:01;2.70;;;1.90;;
4555;SDS011;2290;48.674;9.018;2023-02-05T13:58:50;2.03;;;1.80;;
4555;SDS011;2290;48.674;9.018;2023-02-05T14:02:00;1.47;;;1.37;;
4555;SDS011;2290;48.674;9.018;2023-02-05T14:05:08;1.50;;;1.40;;
4555;SDS011;2290;48.674;9.018;2023-02-05T14:07:42;2.30;;;1.43;;
4555;SDS011;2290;48.674;9.018;2023-02-05T14:10:44;1.97;;;1.57;;
4555;SDS011;2290;48.674;9.018;2023-02-05T14:13:26;1.67;;;1.50;;
4555;SDS011;2290;48.674;9.018;2023-02-05T14:15:58;1.73;;;1.60;;
4555;SDS011;2290;48.674;9.018;2023-02-05T14:24:48;2.30;;;1.70;;
4555;SDS011;2290;48.674;9.018;2023-02-05T14:27:55;2.40;;;1.67;;
4555;SDS011;2290;48.674;9.018;2023-02-05T14:38:30;2.30;;;1.73;;
4555;SDS011;2290;48.674;9.018;2023-02-05T14:45:06;2.00;;;1.77;;
4555;SDS011;2290;48.674;9.018;2023-02-05T14:48:14;2.23;;;1.50;;
4555;SDS011;2290;48.674;9.018;2023-02-05T14:51:08;2.77;;;1.97;;
4555;SDS011;2290;48.674;9.018;2023-02-05T14:54:15;1.70;;;1.50;;
4555;SDS011;2290;48.674;9.018;2023-02-05T14:56:52;1.93;;;1.30;;
4555;SDS011;2290;48.674;9.018;2023-02-05T15:03:35;1.73;;;1.20;;
4555;SDS011;2290;48.674;9.018;2023-02-05T15:06:43;1.60;;;1.37;;
4555;SDS011;2290;48.674;9.018;2023-02-05T15:09:18;1.60;;;1.50;;
4555;SDS011;2290;48.674;9.018;2023-02-05T15:14:57;3.33;;;1.73;;
4555;SDS011;2290;48.674;9.018;2023-02-05T15:18:19;1.53;;;1.40;;
4555;SDS011;2290;48.674;9.018;2023-02-05T15:21:41;1.63;;;1.23;;
4555;SDS011;2290;48.674;9.018;2023-02-05T15:25:04;2.17;;;1.50;;
4555;SDS011;2290;48.674;9.018;2023-02-05T15:28:15;1.83;;;1.60;;
4555;SDS011;2290;48.674;9.018;2023-02-05T15:31:00;1.30;;;1.20;;
4555;SDS011;2290;48.674;9.018;2023-02-05T15:34:05;2.73;;;1.57;;
4555;SDS011;2290;48.674;9.018;2023-02-05T15:37:03;2.90;;;1.87;;
4555;SDS011;2290;48.674;9.018;2023-02-05T15:40:26;2.97;;;1.60;;
4555;SDS011;2290;48.674;9.018;2023-02-05T15:43:34;2.47;;;1.90;;
4555;SDS011;2290;48.674;9.018;2023-02-05T15:46:28;3.37;;;1.50;;
4555;SDS011;2290;48.674;9.018;2023-02-05T15:49:37;1.90;;;1.60;;
4555;SDS011;2290;48.674;9.018;2023-02-05T15:52:25;3.07;;;2.17;;
4555;SDS011;2290;48.674;9.018;2023-02-05T15:58:36;2.43;;;1.87;;
4555;SDS011;2290;48.674;9.018;2023-02-05T16:07:18;4.97;;;2.87;;
4555;SDS011;2290;48.674;9.018;2023-02-05T16:09:51;2.00;;;1.90;;
4555;SDS011;2290;48.674;9.018;2023-02-05T16:13:24;2.30;;;1.77;;
4555;SDS011;2290;48.674;9.018;2023-02-05T16:18:30;2.83;;;2.40;;
4555;SDS011;2290;48.674;9.018;2023-02-05T16:21:07;3.33;;;2.20;;
4555;SDS011;2290;48.674;9.018;2023-02-05T16:23:46;2.53;;;2.13;;
4555;SDS011;2290;48.674;9.018;2023-02-05T16:26:29;3.53;;;2.30;;
4555;SDS011;2290;48.674;9.018;2023-02-05T16:29:14;1.90;;;1.63;;
4555;SDS011;2290;48.674;9.018;2023-02-05T16:31:46;3.00;;;2.23;;
4555;SDS011;2290;48.674;9.018;2023-02-05T16:34:13;3.97;;;2.27;;
4555;SDS011;2290;48.674;9.018;2023-02-05T16:36:43;3.30;;;2.27;;
4555;SDS011;2290;48.674;9.018;2023-02-05T16:42:53;4.50;;;3.23;;
4555;SDS011;2290;48.674;9.018;2023-02-05T16:44:47;6.37;;;3.73;;
4555;SDS011;2290;48.674;9.018;2023-02-05T16:47:14;5.60;;;3.50;;
4555;SDS011;2290;48.674;9.018;2023-02-05T16:49:42;3.80;;;3.30;;
4555;SDS011;2290;48.674;9.018;2023-02-05T16:54:55;7.10;;;3.20;;
4555;SDS011;2290;48.674;9.018;2023-02-05T16:57:47;4.60;;;3.13;;
4555;SDS011;2290;48.674;9.018;2023-02-05T17:00:21;3.97;;;2.97;;
4555;SDS011;2290;48.674;9.018;2023-02-05T17:02:54;4.23;;;3.33;;
4555;SDS011;2290;48.674;9.018;2023-02-05T17:05:29;4.10;;;2.97;;
4555;SDS011;2290;48.674;9.018;2023-02-05T17:08:07;3.47;;;3.17;;
4555;SDS011;2290;48.674;9.018;2023-02-05T17:10:55;4.97;;;3.20;;
4555;SDS011;2290;48.674;9.018;2023-02-05T17:18:58;4.00;;;3.00;;
4555;SDS011;2290;48.674;9.018;2023-02-05T17:24:58;5.10;;;3.30;;
4555;SDS011;2290;48.674;9.018;2023-02-05T17:27:35;7.10;;;3.27;;
4555;SDS011;2290;48.674;9.018;2023-02-05T17:33:32;5.10;;;3.07;;
4555;SDS011;2290;48.674;9.018;2023-02-05T17:36:07;3.80;;;2.77;;
4555;SDS011;2290;48.674;9.018;2023-02-05T17:42:48;3.63;;;2.77;;
4555;SDS011;2290;48.674;9.018;2023-02-05T17:45:19;2.90;;;2.60;;
4555;SDS011;2290;48.674;9.018;2023-02-05T17:47:58;4.13;;;2.73;;
4555;SDS011;2290;48.674;9.018;2023-02-05T17:57:16;4.77;;;3.27;;
4555;SDS011;2290;48.674;9.018;2023-02-05T18:00:25;3.87;;;2.93;;
4555;SDS011;2290;48.674;9.018;2023-02-05T18:03:09;3.77;;;2.43;;
4555;SDS011;2290;48.674;9.018;2023-02-05T18:06:38;6.00;;;3.17;;
4555;SDS011;2290;48.674;9.018;2023-02-05T18:09:54;4.97;;;3.03;;
4555;SDS011;2290;48.674;9.018;2023-02-05T18:12:46;2.87;;;2.37;;
4555;SDS011;2290;48.674;9.018;2023-02-05T18:15:55;3.50;;;2.63;;
4555;SDS011;2290;48.674;9.018;2023-02-05T18:18:44;7.20;;;3.10;;
4555;SDS011;2290;48.674;9.018;2023-02-05T18:21:50;4.30;;;2.70;;
4555;SDS011;2290;48.674;9.018;2023-02-05T18:24:57;5.57;;;3.13;;
4555;SDS011;2290;48.674;9.018;2023-02-05T18:27:32;4.30;;;3.10;;
4555;SDS011;2290;48.674;9.018;2023-02-05T18:30:23;4.90;;;2.80;;
4555;SDS011;2290;48.674;9.018;2023-02-05T18:33:14;8.43;;;3.50;;
4555;SDS011;2290;48.674;9.018;2023-02-05T18:36:36;6.40;;;4.20;;
4555;SDS011;2290;48.674;9.018;2023-02-05T18:39:56;6.07;;;3.50;;
4555;SDS011;2290;48.674;9.018;2023-02-05T18:42:25;8.17;;;4.47;;
4555;SDS011;2290;48.674;9.018;2023-02-05T18:45:11;6.77;;;3.87;;
4555;SDS011;2290;48.674;9.018;2023-02-05T18:48:14;7.90;;;4.20;;
4555;SDS011;2290;48.674;9.018;2023-02-05T19:01:38;5.60;;;3.53;;
4555;SDS011;2290;48.674;9.018;2023-02-05T19:04:42;6.83;;;3.50;;
4555;SDS011;2290;48.674;9.018;2023-02-05T19:07:19;6.13;;;3.67;;
4555;SDS011;2290;48.674;9.018;2023-02-05T19:09:50;5.67;;;3.17;;
4555;SDS011;2290;48.674;9.018;2023-02-05T19:12:26;3.73;;;3.10;;
4555;SDS011;2290;48.674;9.018;2023-02-05T19:18:35;3.67;;;2.87;;
4555;SDS011;2290;48.674;9.018;2023-02-05T19:21:02;4.93;;;3.30;;
4555;SDS011;2290;48.674;9.018;2023-02-05T19:23:56;4.43;;;3.30;;
4555;SDS011;2290;48.674;9.018;2023-02-05T19:26:30;4.90;;;2.90;;
4555;SDS011;2290;48.674;9.018;2023-02-05T19:29:00;4.80;;;3.70;;
4555;SDS011;2290;48.674;9.018;2023-02-05T19:31:29;5.77;;;3.63;;
4555;SDS011;2290;48.674;9.018;2023-02-05T19:33:56;4.87;;;3.17;;
4555;SDS011;2290;48.674;9.018;2023-02-05T19:36:25;3.70;;;3.10;;
4555;SDS011;2290;48.674;9.018;2023-02-05T19:38:58;5.10;;;4.17;;
4555;SDS011;2290;48.674;9.018;2023-02-05T19:41:37;5.53;;;3.77;;
4555;SDS011;2290;48.674;9.018;2023-02-05T19:44:24;8.20;;;4.73;;
4555;SDS011;2290;48.674;9.018;2023-02-05T19:46:55;8.30;;;3.90;;
4555;SDS011;2290;48.674;9.018;2023-02-05T19:49:33;7.20;;;4.73;;
4555;SDS011;2290;48.674;9.018;2023-02-05T19:52:23;7.37;;;4.10;;
4555;SDS011;2290;48.674;9.018;2023-02-05T19:54:55;5.63;;;4.03;;
4555;SDS011;2290;48.674;9.018;2023-02-05T19:57:33;5.70;;;3.57;;
4555;SDS011;2290;48.674;9.018;2023-02-05T20:00:21;5.13;;;3.30;;
4555;SDS011;2290;48.674;9.018;2023-02-05T20:02:55;5.73;;;3.80;;
4555;SDS011;2290;48.674;9.018;2023-02-05T20:05:23;8.10;;;3.93;;
4555;SDS011;2290;48.674;9.018;2023-02-05T20:07:51;6.43;;;4.07;;
4555;SDS011;2290;48.674;9.018;2023-02-05T20:10:17;6.10;;;3.80;;
4555;SDS011;2290;48.674;9.018;2023-02-05T20:12:46;5.50;;;3.67;;
4555;SDS011;2290;48.674;9.018;2023-02-05T20:15:18;6.40;;;4.80;;
4555;SDS011;2290;48.674;9.018;2023-02-05T20:17:55;6.93;;;4.27;;
4555;SDS011;2290;48.674;9.018;2023-02-05T20:20:46;8.90;;;4.83;;
4555;SDS011;2290;48.674;9.018;2023-02-05T20:23:37;7.03;;;4.00;;
4555;SDS011;2290;48.674;9.018;2023-02-05T20:26:31;7.00;;;4.07;;
4555;SDS011;2290;48.674;9.018;2023-02-05T20:29:48;8.70;;;4.40;;
4555;SDS011;2290;48.674;9.018;2023-02-05T20:36:11;8.17;;;5.20;;
4555;SDS011;2290;48.674;9.018;2023-02-05T20:41:54;8.50;;;5.30;;
4555;SDS011;2290;48.674;9.018;2023-02-05T20:44:33;8.47;;;4.50;;
4555;SDS011;2290;48.674;9.018;2023-02-05T20:47:15;8.10;;;4.37;;
4555;SDS011;2290;48.674;9.018;2023-02-05T20:50:41;6.20;;;4.30;;
4555;SDS011;2290;48.674;9.018;2023-02-05T20:53:40;8.57;;;4.90;;
4555;SDS011;2290;48.674;9.018;2023-02-05T20:56:13;7.07;;;4.40;;
4555;SDS011;2290;48.674;9.018;2023-02-05T20:58:42;13.90;;;5.57;;
4555;SDS011;2290;48.674;9.018;2023-02-05T21:01:37;6.90;;;4.43;;
4555;SDS011;2290;48.674;9.018;2023-02-05T21:04:22;10.50;;;5.90;;
4555;SDS011;2290;48.674;9.018;2023-02-05T21:06:58;8.93;;;5.37;;
4555;SDS011;2290;48.674;9.018;2023-02-05T21:09:59;10.13;;;5.70;;
4555;SDS011;2290;48.674;9.018;2023-02-05T21:12:42;8.73;;;5.10;;
4555;SDS011;2290;48.674;9.018;2023-02-05T21:16:02;8.80;;;4.87;;
4555;SDS011;2290;48.674;9.018;2023-02-05T21:18:59;7.47;;;5.17;;
4555;SDS011;2290;48.674;9.018;2023-02-05T21:22:33;6.87;;;4.30;;
4555;SDS011;2290;48.674;9.018;2023-02-05T21:25:26;7.57;;;4.60;;
4555;SDS011;2290;48.674;9.018;2023-02-05T21:28:59;7.67;;;4.43;;
4555;SDS011;2290;48.674;9.018;2023-02-05T21:31:50;9.37;;;4.87;;
4555;SDS011;2290;48.674;9.018;2023-02-05T21:34:33;10.70;;;5.20;;
4555;SDS011;2290;48.674;9.018;2023-02-05T21:37:40;10.17;;;4.50;;
4555;SDS011;2290;48.674;9.018;2023-02-05T21:41:08;7.97;;;4.83;;
4555;SDS011;2290;48.674;9.018;2023-02-05T21:44:11;9.77;;;5.53;;
4555;SDS011;2290;48.674;9.018;2023-02-05T21:47:22;10.63;;;5.43;;
4555;SDS011;2290;48.674;9.018;2023-02-05T21:50:00;9.80;;;5.70;;
4555;SDS011;2290;48.674;9.018;2023-02-05T21:53:05;10.57;;;5.43;;
4555;SDS011;2290;48.674;9.018;2023-02-05T21:55:54;11.20;;;5.80;;
4555;SDS011;2290;48.674;9.018;2023-02-05T21:58:30;13.63;;;6.53;;
4555;SDS011;2290;48.674;9.018;2023-02-05T22:06:54;12.07;;;5.30;;
4555;SDS011;2290;48.674;9.018;2023-02-05T22:10:34;12.57;;;5.93;;
4555;SDS011;2290;48.674;9.018;2023-02-05T22:13:25;9.83;;;5.30;;
4555;SDS011;2290;48.674;9.018;2023-02-05T22:16:32;11.80;;;5.97;;
4555;SDS011;2290;48.674;9.018;2023-02-05T22:19:04;12.10;;;6.10;;
4555;SDS011;2290;48.674;9.018;2023-02-05T23:52:44;17.20;;;7.07;;
